createdAt,value
2023-05-05T05:33:29.444Z,500.00
2023-05-05T05:34:30.128Z,500.00
2023-05-05T05:35:29.428Z,500.00
2023-05-05T05:36:29.421Z,500.00
2023-05-05T05:37:29.412Z,500.00
2023-05-05T05:38:29.402Z,400.00
2023-05-05T05:39:29.399Z,400.00
2023-05-05T05:40:29.386Z,400.00
2023-05-05T05:41:29.380Z,400.00
2023-05-05T05:42:29.372Z,400.00
2023-05-05T05:43:29.368Z,400.00
2023-05-05T05:44:29.406Z,400.00
2023-05-05T05:45:29.356Z,400.00
2023-05-05T05:46:30.321Z,400.00
2023-05-05T05:47:29.435Z,400.00
2023-05-05T05:48:29.366Z,400.00
2023-05-05T05:49:29.323Z,400.00
2023-05-05T05:50:29.312Z,400.00
2023-05-05T05:51:29.308Z,400.00
2023-05-05T05:52:29.302Z,400.00
2023-05-05T05:53:29.302Z,400.00
2023-05-05T05:54:29.285Z,400.00
2023-05-05T05:55:29.285Z,400.00
2023-05-05T05:56:29.280Z,400.00
2023-05-05T05:57:29.269Z,400.00
2023-05-05T05:58:29.264Z,400.00
2023-05-05T05:59:29.250Z,400.00
2023-05-05T06:00:29.245Z,400.00
2023-05-05T06:01:29.276Z,400.00
2023-05-05T06:02:29.294Z,400.00
2023-05-05T06:03:29.269Z,400.00
2023-05-05T06:04:29.296Z,400.00
2023-05-05T06:05:29.226Z,400.00
2023-05-05T06:06:29.212Z,400.00
2023-05-05T06:07:30.147Z,400.00
2023-05-05T06:08:29.244Z,400.00
2023-05-05T06:09:29.184Z,400.00
2023-05-05T06:10:29.439Z,400.00
2023-05-05T06:11:29.173Z,400.00
2023-05-05T06:12:29.162Z,400.00
2023-05-05T06:13:29.153Z,400.00
2023-05-05T06:14:29.152Z,400.00
2023-05-05T06:15:29.142Z,400.00
2023-05-05T06:16:29.173Z,400.00
2023-05-05T06:17:29.126Z,400.00
2023-05-05T06:18:29.130Z,400.00
2023-05-05T06:19:29.108Z,400.00
2023-05-05T06:20:29.142Z,400.00
2023-05-05T06:21:29.166Z,400.00
2023-05-05T06:22:29.135Z,400.00
2023-05-05T06:23:29.153Z,400.00
2023-05-05T06:24:29.156Z,400.00
2023-05-05T06:25:29.169Z,400.00
2023-05-05T06:26:29.188Z,400.00
2023-05-05T06:27:29.165Z,400.00
2023-05-05T06:28:29.165Z,400.00
2023-05-05T06:29:29.173Z,400.00
2023-05-05T06:30:29.210Z,400.00
2023-05-05T06:31:29.285Z,400.00
2023-05-05T06:32:29.214Z,400.00
2023-05-05T06:33:29.183Z,400.00
2023-05-05T06:34:29.196Z,400.00
2023-05-05T06:35:29.208Z,400.00
2023-05-05T06:36:29.246Z,400.00
2023-05-05T06:37:29.240Z,400.00
2023-05-05T06:38:29.256Z,400.00
2023-05-05T06:39:29.271Z,400.00
2023-05-05T06:40:29.293Z,400.00
2023-05-05T06:41:29.312Z,400.00
2023-05-05T06:42:29.325Z,400.00
2023-05-05T06:43:29.351Z,400.00
2023-05-05T06:44:29.343Z,400.00
2023-05-05T06:45:30.125Z,400.00
2023-05-05T06:46:29.410Z,400.00
2023-05-05T06:47:29.520Z,400.00
2023-05-05T06:48:29.418Z,400.00
2023-05-05T06:49:29.430Z,400.00
2023-05-05T06:50:29.436Z,400.00
2023-05-05T06:51:29.485Z,400.00
2023-05-05T06:52:29.493Z,400.00
2023-05-05T06:53:29.586Z,420.00
2023-05-05T06:54:29.538Z,459.00
2023-05-05T06:55:29.570Z,498.00
2023-05-05T06:56:29.593Z,501.00
2023-05-05T06:57:29.613Z,506.00
2023-05-05T06:58:29.631Z,501.00
2023-05-05T06:59:29.664Z,500.00
2023-05-05T07:00:29.708Z,500.00
2023-05-05T07:01:29.686Z,499.00
2023-05-05T07:02:29.765Z,500.00
2023-05-05T07:03:29.752Z,502.00
2023-05-05T07:04:29.759Z,500.00
2023-05-05T07:05:29.772Z,500.00
2023-05-05T07:06:29.793Z,500.00
2023-05-05T07:07:29.816Z,502.00
2023-05-05T07:08:29.823Z,503.00
2023-05-05T07:09:29.958Z,502.00
2023-05-05T07:10:29.873Z,514.00
2023-05-05T07:12:13.459Z,500.00
2023-05-05T07:13:13.542Z,500.00
2023-05-05T07:14:13.516Z,500.00
2023-05-05T07:15:26.885Z,500.00
2023-05-05T07:16:14.578Z,500.00
2023-05-05T07:17:13.593Z,500.00
2023-05-05T07:18:13.654Z,500.00
2023-05-05T07:19:13.685Z,500.00
2023-05-05T07:20:13.911Z,500.00
2023-05-05T07:21:13.726Z,501.00
2023-05-05T07:23:22.588Z,500.00
2023-05-05T07:24:22.562Z,500.00
2023-05-05T07:25:22.598Z,500.00
2023-05-05T07:26:22.499Z,500.00
2023-05-05T07:27:22.498Z,500.00
2023-05-05T07:28:22.417Z,500.00
2023-05-05T07:29:22.370Z,514.00
2023-05-05T07:30:22.452Z,506.00
2023-05-05T07:31:22.302Z,504.00
2023-05-05T07:32:22.334Z,503.00
2023-05-05T07:33:22.227Z,507.00
2023-05-05T07:34:22.234Z,505.00
2023-05-05T07:35:22.160Z,503.00
2023-05-05T07:36:22.119Z,504.00
2023-05-05T07:37:22.078Z,500.00
2023-05-05T07:38:22.049Z,515.00
2023-05-05T07:39:22.003Z,512.00
2023-05-05T07:40:21.963Z,522.00
2023-05-05T07:41:22.019Z,523.00
2023-05-05T07:42:21.891Z,517.00
2023-05-05T07:43:21.830Z,511.00
2023-05-05T07:44:21.783Z,506.00
2023-05-05T07:45:21.738Z,513.00
2023-05-05T07:46:21.695Z,520.00
2023-05-05T07:47:21.702Z,519.00
2023-05-05T07:48:21.643Z,519.00
2023-05-05T07:49:21.763Z,506.00
2023-05-05T07:50:22.170Z,500.00
2023-05-05T07:51:21.420Z,499.00
2023-05-05T07:52:30.120Z,510.00
2023-05-05T07:53:22.288Z,510.00
2023-05-05T07:54:21.242Z,510.00
2023-05-05T07:55:21.210Z,506.00
2023-05-05T07:56:21.874Z,493.00
2023-05-05T07:57:21.160Z,489.00
2023-05-05T07:58:21.028Z,502.00
2023-05-05T07:59:20.984Z,503.00
2023-05-05T08:00:21.934Z,503.00
2023-05-05T08:01:21.752Z,504.00
2023-05-05T08:02:20.822Z,503.00
2023-05-05T08:03:20.821Z,499.00
2023-05-05T08:04:20.733Z,495.00
2023-05-05T08:05:20.644Z,502.00
2023-05-05T08:06:20.597Z,499.00
2023-05-05T08:07:20.676Z,506.00
2023-05-05T08:08:20.498Z,512.00
2023-05-05T08:09:20.446Z,507.00
2023-05-05T08:10:20.383Z,509.00
2023-05-05T08:11:20.338Z,514.00
2023-05-05T08:12:20.297Z,508.00
2023-05-05T08:13:20.655Z,508.00
2023-05-05T08:14:20.277Z,500.00
2023-05-05T08:15:20.257Z,500.00
2023-05-05T08:16:20.253Z,502.00
2023-05-05T08:17:20.210Z,500.00
2023-05-05T08:18:20.179Z,502.00
2023-05-05T08:19:28.921Z,502.00
2023-05-05T08:20:21.699Z,495.00
2023-05-05T08:21:20.050Z,484.00
2023-05-05T08:22:19.997Z,476.00
2023-05-05T08:23:20.767Z,470.00
2023-05-05T08:24:19.879Z,471.00
2023-05-05T08:25:20.697Z,500.00
2023-05-05T08:26:19.777Z,504.00
2023-05-05T08:27:19.697Z,518.00
2023-05-05T08:28:19.648Z,534.00
2023-05-05T08:29:19.665Z,521.00
2023-05-05T08:30:19.531Z,540.00
2023-05-05T08:31:19.562Z,548.00
2023-05-05T08:32:19.431Z,579.00
2023-05-05T08:33:19.425Z,596.00
2023-05-05T08:34:19.374Z,611.00
2023-05-05T08:35:19.348Z,628.00
2023-05-05T08:36:19.321Z,648.00
2023-05-05T08:37:19.301Z,658.00
2023-05-05T08:38:19.286Z,651.00
2023-05-05T08:39:19.255Z,661.00
2023-05-05T08:40:19.238Z,652.00
2023-05-05T08:41:19.194Z,654.00
2023-05-05T08:42:29.312Z,649.00
2023-05-05T08:43:20.784Z,649.00
2023-05-05T08:44:19.105Z,650.00
2023-05-05T08:45:19.131Z,651.00
2023-05-05T08:46:19.011Z,657.00
2023-05-05T08:47:18.969Z,668.00
2023-05-05T08:48:18.900Z,655.00
2023-05-05T08:49:18.926Z,649.00
2023-05-05T08:50:18.800Z,653.00
2023-05-05T08:51:18.764Z,656.00
2023-05-05T08:52:18.735Z,660.00
2023-05-05T08:53:18.682Z,681.00
2023-05-05T08:54:18.613Z,684.00
2023-05-05T08:55:18.548Z,696.00
2023-05-05T08:56:18.498Z,704.00
2023-05-05T08:57:18.434Z,712.00
2023-05-05T08:58:19.278Z,733.00
2023-05-05T08:59:18.406Z,749.00
2023-05-05T09:00:18.306Z,737.00
2023-05-05T09:01:18.460Z,752.00
2023-05-05T09:02:18.269Z,768.00
2023-05-05T09:03:18.268Z,775.00
2023-05-05T09:04:18.139Z,815.00
2023-05-05T09:05:18.089Z,812.00
2023-05-05T09:06:18.056Z,817.00
2023-05-05T09:07:18.023Z,828.00
2023-05-05T09:08:17.973Z,835.00
2023-05-05T09:09:17.941Z,802.00
2023-05-05T09:10:17.885Z,798.00
2023-05-05T09:11:17.871Z,788.00
2023-05-05T09:12:17.820Z,799.00
2023-05-05T09:13:17.822Z,788.00
2023-05-05T09:14:17.737Z,746.00
2023-05-05T09:15:17.720Z,718.00
2023-05-05T09:16:18.669Z,718.00
2023-05-05T09:17:17.585Z,704.00
2023-05-05T09:18:17.519Z,676.00
2023-05-05T09:19:17.447Z,671.00
2023-05-05T09:20:17.402Z,664.00
2023-05-05T09:21:17.316Z,656.00
2023-05-05T09:22:17.276Z,662.00
2023-05-05T09:23:17.188Z,651.00
2023-05-05T09:24:17.133Z,654.00
2023-05-05T09:25:17.071Z,646.00
2023-05-05T09:26:17.025Z,650.00
2023-05-05T09:27:17.044Z,644.00
2023-05-05T09:28:17.826Z,639.00
2023-05-05T09:29:16.847Z,637.00
2023-05-05T09:30:16.846Z,636.00
2023-05-05T09:31:16.770Z,630.00
2023-05-05T09:32:16.728Z,633.00
2023-05-05T09:33:16.780Z,629.00
2023-05-05T09:34:16.671Z,620.00
2023-05-05T09:35:23.631Z,620.00
2023-05-05T09:36:16.606Z,621.00
2023-05-05T09:37:16.498Z,622.00
2023-05-05T09:38:16.456Z,622.00
2023-05-05T09:39:16.376Z,614.00
2023-05-05T09:40:16.317Z,610.00
2023-05-05T09:41:16.234Z,608.00
2023-05-05T09:42:16.195Z,611.00
2023-05-05T09:43:16.117Z,603.00
2023-05-05T09:44:16.069Z,602.00
2023-05-05T09:45:15.990Z,603.00
2023-05-05T09:46:15.961Z,599.00
2023-05-05T09:47:29.106Z,584.00
2023-05-05T09:48:16.851Z,585.00
2023-05-05T09:49:15.943Z,586.00
2023-05-05T09:50:15.695Z,587.00
2023-05-05T09:51:15.623Z,586.00
2023-05-05T09:52:15.616Z,582.00
2023-05-05T09:53:15.630Z,580.00
2023-05-05T09:54:15.444Z,573.00
2023-05-05T09:55:15.408Z,570.00
2023-05-05T09:56:15.321Z,570.00
2023-05-05T09:57:15.263Z,569.00
2023-05-05T09:58:15.264Z,566.00
2023-05-05T09:59:15.189Z,561.00
2023-05-05T10:00:15.051Z,558.00
2023-05-05T10:01:15.037Z,557.00
2023-05-05T10:02:15.750Z,559.00
2023-05-05T10:03:14.962Z,556.00
2023-05-05T10:04:14.911Z,557.00
2023-05-05T10:05:15.056Z,552.00
2023-05-05T10:06:14.851Z,549.00
2023-05-05T10:07:14.832Z,550.00
2023-05-05T10:08:14.813Z,548.00
2023-05-05T10:09:15.089Z,553.00
2023-05-05T10:10:14.764Z,546.00
2023-05-05T10:11:14.723Z,543.00
2023-05-05T10:12:14.701Z,547.00
2023-05-05T10:13:14.704Z,542.00
2023-05-05T10:14:14.652Z,546.00
2023-05-05T10:15:14.626Z,544.00
2023-05-05T10:16:14.625Z,538.00
2023-05-05T10:17:14.582Z,535.00
2023-05-05T10:18:14.604Z,539.00
2023-05-05T10:19:15.517Z,539.00
2023-05-05T10:20:15.333Z,539.00
2023-05-05T10:21:14.477Z,539.00
2023-05-05T10:22:14.336Z,535.00
2023-05-05T10:23:14.266Z,535.00
2023-05-05T10:24:14.212Z,533.00
2023-05-05T10:25:14.166Z,533.00
2023-05-05T10:26:14.108Z,530.00
2023-05-05T10:27:14.030Z,529.00
2023-05-05T10:28:13.966Z,526.00
2023-05-05T10:29:13.934Z,526.00
2023-05-05T10:30:13.861Z,524.00
2023-05-05T10:31:25.137Z,523.00
2023-05-05T10:32:37.112Z,523.00
2023-05-05T10:33:30.873Z,524.00
2023-05-05T10:34:15.001Z,524.00
2023-05-05T10:35:13.564Z,524.00
2023-05-05T10:36:13.494Z,524.00
2023-05-05T10:37:13.565Z,525.00
2023-05-05T10:38:13.370Z,525.00
2023-05-05T10:39:13.307Z,525.00
2023-05-05T10:40:13.227Z,521.00
2023-05-05T10:41:13.168Z,517.00
2023-05-05T10:42:13.118Z,511.00
2023-05-05T10:43:13.063Z,510.00
2023-05-05T10:44:13.000Z,507.00
2023-05-05T10:45:12.948Z,508.00
2023-05-05T10:46:12.937Z,502.00
2023-05-05T10:47:12.829Z,506.00
2023-05-05T10:48:12.895Z,501.00
2023-05-05T10:49:13.471Z,500.00
2023-05-05T10:50:12.645Z,500.00
2023-05-05T10:51:14.114Z,503.00
2023-05-05T10:52:12.524Z,508.00
2023-05-05T10:53:12.515Z,506.00
2023-05-05T10:54:12.446Z,504.00
2023-05-05T10:55:12.344Z,503.00
2023-05-05T10:56:12.279Z,504.00
2023-05-05T10:57:12.236Z,504.00
2023-05-05T10:58:12.863Z,502.00
2023-05-05T10:59:12.120Z,500.00
2023-05-05T11:00:13.412Z,501.00
2023-05-05T11:01:12.217Z,501.00
2023-05-05T11:02:12.165Z,502.00
2023-05-05T11:03:12.140Z,501.00
2023-05-05T11:04:12.113Z,501.00
2023-05-05T11:05:12.087Z,497.00
2023-05-05T11:06:12.062Z,500.00
2023-05-05T11:07:15.007Z,500.00
2023-05-05T11:08:11.990Z,504.00
2023-05-05T11:09:11.931Z,503.00
2023-05-05T11:10:11.997Z,501.00
2023-05-05T11:11:11.845Z,501.00
2023-05-05T11:12:11.733Z,500.00
2023-05-05T11:13:11.729Z,504.00
2023-05-05T11:14:11.609Z,500.00
2023-05-05T11:15:11.554Z,500.00
2023-05-05T11:16:11.533Z,503.00
2023-05-05T11:17:11.428Z,501.00
2023-05-05T11:18:11.436Z,508.00
2023-05-05T11:19:11.300Z,507.00
2023-05-05T11:20:11.260Z,501.00
2023-05-05T11:21:11.197Z,500.00
2023-05-05T11:22:11.130Z,500.00
2023-05-05T11:23:11.161Z,502.00
2023-05-05T11:24:11.010Z,502.00
2023-05-05T11:25:11.124Z,500.00
2023-05-05T11:26:10.899Z,500.00
2023-05-05T11:27:10.861Z,502.00
2023-05-05T11:28:10.792Z,507.00
2023-05-05T11:29:10.717Z,512.00
2023-05-05T11:30:10.871Z,501.00
2023-05-05T11:31:10.692Z,498.00
2023-05-05T11:32:10.559Z,503.00
2023-05-05T11:33:10.507Z,507.00
2023-05-05T11:34:10.450Z,512.00
2023-05-05T11:35:10.399Z,512.00
2023-05-05T11:36:10.345Z,504.00
2023-05-05T11:37:10.302Z,501.00
2023-05-05T11:38:10.271Z,504.00
2023-05-05T11:39:10.184Z,504.00
2023-05-05T11:40:10.338Z,503.00
2023-05-05T11:41:10.155Z,502.00
2023-05-05T11:42:11.078Z,502.00
2023-05-05T11:43:09.959Z,508.00
2023-05-05T11:44:09.928Z,505.00
2023-05-05T11:45:09.861Z,505.00
2023-05-05T11:46:09.819Z,510.00
2023-05-05T11:47:09.770Z,510.00
2023-05-05T11:48:10.347Z,511.00
2023-05-05T11:49:09.672Z,508.00
2023-05-05T11:50:09.827Z,506.00
2023-05-05T11:51:09.646Z,514.00
2023-05-05T11:52:09.674Z,508.00
2023-05-05T11:53:09.641Z,509.00
2023-05-05T11:54:09.630Z,514.00
2023-05-05T11:55:09.623Z,515.00
2023-05-05T11:56:09.625Z,511.00
2023-05-05T11:57:09.616Z,513.00
2023-05-05T11:58:09.596Z,511.00
2023-05-05T11:59:09.699Z,513.00
2023-05-05T12:00:09.760Z,510.00
2023-05-05T12:01:09.602Z,515.00
2023-05-05T12:02:09.572Z,513.00
2023-05-05T12:03:09.635Z,512.00
2023-05-05T12:04:09.731Z,508.00
2023-05-05T12:05:09.540Z,510.00
2023-05-05T12:06:09.511Z,507.00
2023-05-05T12:07:09.505Z,512.00
2023-05-05T12:08:09.496Z,511.00
2023-05-05T12:09:09.471Z,515.00
2023-05-05T12:10:09.641Z,505.00
2023-05-05T12:11:09.446Z,512.00
2023-05-05T12:12:09.464Z,508.00
2023-05-05T12:13:09.523Z,514.00
2023-05-05T12:14:09.441Z,508.00
2023-05-05T12:15:09.480Z,510.00
2023-05-05T12:16:09.477Z,509.00
2023-05-05T12:17:09.404Z,511.00
2023-05-05T12:18:09.445Z,512.00
2023-05-05T12:19:09.385Z,508.00
2023-05-05T12:20:09.665Z,510.00
2023-05-05T12:21:09.359Z,508.00
2023-05-05T12:22:09.359Z,509.00
2023-05-05T12:23:09.318Z,507.00
2023-05-05T12:24:09.292Z,507.00
2023-05-05T12:25:09.265Z,509.00
2023-05-05T12:26:09.284Z,506.00
2023-05-05T12:27:09.249Z,506.00
2023-05-05T12:28:09.300Z,507.00
2023-05-05T12:29:09.264Z,508.00
2023-05-05T12:30:09.364Z,504.00
2023-05-05T12:31:09.258Z,506.00
2023-05-05T12:32:09.291Z,501.00
2023-05-05T12:33:09.209Z,507.00
2023-05-05T12:34:09.183Z,507.00
2023-05-05T12:35:09.199Z,507.00
2023-05-05T12:36:09.168Z,505.00
2023-05-05T12:37:09.195Z,502.00
2023-05-05T12:38:09.150Z,503.00
2023-05-05T12:39:09.156Z,505.00
2023-05-05T12:40:09.225Z,507.00
2023-05-05T12:41:09.143Z,505.00
2023-05-05T12:42:09.090Z,505.00
2023-05-05T12:43:09.101Z,504.00
2023-05-05T12:44:09.089Z,506.00
2023-05-05T12:45:09.170Z,504.00
2023-05-05T12:46:09.139Z,503.00
2023-05-05T12:47:09.062Z,504.00
2023-05-05T12:48:09.068Z,504.00
2023-05-05T12:49:09.044Z,505.00
2023-05-05T12:50:09.245Z,504.00
2023-05-05T12:51:09.049Z,508.00
2023-05-05T12:52:09.026Z,506.00
2023-05-05T12:53:09.024Z,506.00
2023-05-05T12:54:09.017Z,505.00
2023-05-05T12:55:09.200Z,509.00
2023-05-05T12:56:09.004Z,505.00
2023-05-05T12:57:08.999Z,508.00
2023-05-05T12:58:08.993Z,502.00
2023-05-05T12:59:08.978Z,503.00
2023-05-05T13:00:09.200Z,502.00
2023-05-05T13:01:09.043Z,501.00
2023-05-05T13:02:08.974Z,502.00
2023-05-05T13:03:09.026Z,504.00
2023-05-05T13:04:08.942Z,502.00
2023-05-05T13:05:09.054Z,506.00
2023-05-05T13:06:08.904Z,508.00
2023-05-05T13:07:08.898Z,515.00
2023-05-05T13:08:08.848Z,510.00
2023-05-05T13:09:08.836Z,506.00
2023-05-05T13:10:08.859Z,506.00
2023-05-05T13:11:08.823Z,503.00
2023-05-05T13:12:08.828Z,505.00
2023-05-05T13:13:08.901Z,507.00
2023-05-05T13:14:08.839Z,506.00
2023-05-05T13:15:08.956Z,505.00
2023-05-05T13:16:08.840Z,501.00
2023-05-05T13:17:08.838Z,506.00
2023-05-05T13:18:08.840Z,502.00
2023-05-05T13:19:08.757Z,504.00
2023-05-05T13:20:08.756Z,508.00
2023-05-05T13:21:08.741Z,509.00
2023-05-05T13:22:08.743Z,506.00
2023-05-05T13:23:08.684Z,510.00
2023-05-05T13:24:23.550Z,500.00
2023-05-05T13:25:09.754Z,500.00
2023-05-05T13:26:08.575Z,501.00
2023-05-05T13:27:08.502Z,503.00
2023-05-05T13:28:08.458Z,504.00
2023-05-05T13:29:08.407Z,504.00
2023-05-05T13:30:08.362Z,504.00
2023-05-05T13:31:08.315Z,503.00
2023-05-05T13:32:08.256Z,501.00
2023-05-05T13:33:08.209Z,503.00
2023-05-05T13:34:08.154Z,507.00
2023-05-05T13:35:08.311Z,500.00
2023-05-05T13:36:08.135Z,503.00
2023-05-05T13:37:08.120Z,501.00
2023-05-05T13:38:08.123Z,507.00
2023-05-05T13:39:08.079Z,500.00
2023-05-05T13:40:08.079Z,500.00
2023-05-05T13:41:08.049Z,507.00
2023-05-05T13:42:08.055Z,501.00
2023-05-05T13:43:08.019Z,503.00
2023-05-05T13:44:08.057Z,504.00
2023-05-05T13:45:08.278Z,506.00
2023-05-05T13:46:19.150Z,504.00
2023-05-05T13:47:09.012Z,504.00
2023-05-05T13:48:07.998Z,505.00
2023-05-05T13:49:07.879Z,505.00
2023-05-05T13:50:07.798Z,505.00
2023-05-05T13:51:07.744Z,504.00
2023-05-05T13:52:07.687Z,501.00
2023-05-05T13:53:07.634Z,506.00
2023-05-05T13:54:07.588Z,501.00
2023-05-05T13:55:07.723Z,501.00
2023-05-05T13:56:07.552Z,503.00
2023-05-05T13:57:07.535Z,502.00
2023-05-05T13:58:07.547Z,506.00
2023-05-05T13:59:07.613Z,506.00
2023-05-05T14:00:07.571Z,507.00
2023-05-05T14:01:07.702Z,510.00
2023-05-05T14:02:07.674Z,506.00
2023-05-05T14:03:07.637Z,505.00
2023-05-05T14:04:07.886Z,505.00
2023-05-05T14:05:07.840Z,505.00
2023-05-05T14:06:07.684Z,500.00
2023-05-05T14:07:07.666Z,504.00
2023-05-05T14:08:07.655Z,500.00
2023-05-05T14:09:07.699Z,507.00
2023-05-05T14:10:07.698Z,502.00
2023-05-05T14:11:07.716Z,504.00
2023-05-05T14:12:07.748Z,504.00
2023-05-05T14:13:07.778Z,509.00
2023-05-05T14:14:07.792Z,507.00
2023-05-05T14:15:08.133Z,505.00
2023-05-05T14:16:07.930Z,507.00
2023-05-05T14:17:07.787Z,504.00
2023-05-05T14:18:07.864Z,501.00
2023-05-05T14:19:07.794Z,507.00
2023-05-05T14:20:07.829Z,507.00
2023-05-05T14:21:07.939Z,503.00
2023-05-05T14:22:07.841Z,503.00
2023-05-05T14:23:07.855Z,506.00
2023-05-05T14:24:07.877Z,503.00
2023-05-05T14:25:08.043Z,503.00
2023-05-05T14:26:07.929Z,503.00
2023-05-05T14:27:07.935Z,506.00
2023-05-05T14:28:07.947Z,502.00
2023-05-05T14:29:08.457Z,504.00
2023-05-05T14:30:07.952Z,503.00
2023-05-05T14:31:08.918Z,504.00
2023-05-05T14:32:07.913Z,504.00
2023-05-05T14:33:07.931Z,504.00
2023-05-05T14:34:07.786Z,509.00
2023-05-05T14:35:07.908Z,504.00
2023-05-05T14:36:07.699Z,504.00
2023-05-05T14:37:07.665Z,510.00
2023-05-05T14:38:07.678Z,509.00
2023-05-05T14:39:07.592Z,507.00
2023-05-05T14:40:07.622Z,506.00
2023-05-05T14:41:07.556Z,502.00
2023-05-05T14:42:07.559Z,504.00
2023-05-05T14:43:07.574Z,506.00
2023-05-05T14:44:07.548Z,504.00
2023-05-05T14:45:07.674Z,500.00
2023-05-05T14:46:07.664Z,500.00
2023-05-05T14:47:07.564Z,511.00
2023-05-05T14:48:07.548Z,509.00
2023-05-05T14:49:07.566Z,506.00
2023-05-05T14:50:07.542Z,509.00
2023-05-05T14:51:07.580Z,506.00
2023-05-05T14:52:07.576Z,504.00
2023-05-05T14:53:07.630Z,503.00
2023-05-05T14:54:17.173Z,506.00
2023-05-05T14:55:08.666Z,507.00
2023-05-05T14:56:07.418Z,507.00
2023-05-05T14:57:07.346Z,507.00
2023-05-05T14:58:07.261Z,506.00
2023-05-05T14:59:07.230Z,507.00
2023-05-05T15:00:07.147Z,504.00
2023-05-05T15:01:07.212Z,505.00
2023-05-05T15:02:07.050Z,503.00
2023-05-05T15:03:07.139Z,502.00
2023-05-05T15:04:07.013Z,503.00
2023-05-05T15:05:07.165Z,502.00
2023-05-05T15:06:06.888Z,504.00
2023-05-05T15:07:06.825Z,506.00
2023-05-05T15:08:06.841Z,503.00
2023-05-05T15:09:06.891Z,504.00
2023-05-05T15:10:06.751Z,500.00
2023-05-05T15:11:06.737Z,503.00
2023-05-05T15:12:06.706Z,507.00
2023-05-05T15:13:06.759Z,503.00
2023-05-05T15:14:06.646Z,504.00
2023-05-05T15:15:06.755Z,506.00
2023-05-05T15:16:06.624Z,501.00
2023-05-05T15:17:06.583Z,509.00
2023-05-05T15:18:06.636Z,506.00
2023-05-05T15:19:06.552Z,509.00
2023-05-05T15:20:06.503Z,507.00
2023-05-05T15:21:06.485Z,507.00
2023-05-05T15:22:06.474Z,510.00
2023-05-05T15:23:06.431Z,507.00
2023-05-05T15:24:06.456Z,509.00
2023-05-05T15:25:06.627Z,505.00
2023-05-05T15:26:06.413Z,509.00
2023-05-05T15:27:06.402Z,504.00
2023-05-05T15:28:06.422Z,506.00
2023-05-05T15:29:06.461Z,508.00
2023-05-05T15:30:06.417Z,505.00
2023-05-05T15:31:06.408Z,501.00
2023-05-05T15:32:06.463Z,502.00
2023-05-05T15:33:06.438Z,505.00
2023-05-05T15:34:06.414Z,505.00
2023-05-05T15:35:06.536Z,500.00
2023-05-05T15:36:06.434Z,503.00
2023-05-05T15:37:06.450Z,506.00
2023-05-05T15:38:06.434Z,505.00
2023-05-05T15:39:06.455Z,506.00
2023-05-05T15:40:06.431Z,511.00
2023-05-05T15:41:06.517Z,508.00
2023-05-05T15:42:06.453Z,509.00
2023-05-05T15:43:06.455Z,508.00
2023-05-05T15:44:06.434Z,502.00
2023-05-05T15:45:06.530Z,511.00
2023-05-05T15:46:06.438Z,502.00
2023-05-05T15:47:06.474Z,502.00
2023-05-05T15:48:06.523Z,505.00
2023-05-05T15:49:06.505Z,505.00
2023-05-05T15:50:06.472Z,501.00
2023-05-05T15:51:06.457Z,503.00
2023-05-05T15:52:06.457Z,502.00
2023-05-05T15:53:06.447Z,505.00
2023-05-05T15:54:06.473Z,506.00
2023-05-05T15:55:06.533Z,505.00
2023-05-05T15:56:06.477Z,510.00
2023-05-05T15:57:06.451Z,504.00
2023-05-05T15:58:06.460Z,508.00
2023-05-05T15:59:07.635Z,506.00
2023-05-05T16:00:06.474Z,506.00
2023-05-05T16:01:06.530Z,500.00
2023-05-05T16:02:06.521Z,500.00
2023-05-05T16:03:06.540Z,512.00
2023-05-05T16:04:06.523Z,507.00
2023-05-05T16:05:06.695Z,509.00
2023-05-05T16:06:06.491Z,501.00
2023-05-05T16:07:06.500Z,502.00
2023-05-05T16:08:06.501Z,500.00
2023-05-05T16:09:06.538Z,505.00
2023-05-05T16:10:06.510Z,508.00
2023-05-05T16:11:06.534Z,506.00
2023-05-05T16:12:06.521Z,504.00
2023-05-05T16:13:07.021Z,500.00
2023-05-05T16:14:06.530Z,504.00
2023-05-05T16:15:06.649Z,505.00
2023-05-05T16:16:06.501Z,508.00
2023-05-05T16:17:06.562Z,504.00
2023-05-05T16:18:06.559Z,504.00
2023-05-05T16:19:06.546Z,504.00
2023-05-05T16:20:06.536Z,504.00
2023-05-05T16:21:06.548Z,505.00
2023-05-05T16:22:06.555Z,503.00
2023-05-05T16:23:06.569Z,505.00
2023-05-05T16:24:06.794Z,509.00
2023-05-05T16:25:06.680Z,501.00
2023-05-05T16:26:06.570Z,501.00
2023-05-05T16:27:06.528Z,502.00
2023-05-05T16:28:06.542Z,509.00
2023-05-05T16:29:06.589Z,506.00
2023-05-05T16:30:06.502Z,506.00
2023-05-05T16:31:06.483Z,505.00
2023-05-05T16:32:06.570Z,504.00
2023-05-05T16:33:06.480Z,504.00
2023-05-05T16:34:06.435Z,504.00
2023-05-05T16:35:06.434Z,505.00
2023-05-05T16:36:06.411Z,505.00
2023-05-05T16:37:06.378Z,509.00
2023-05-05T16:38:06.377Z,503.00
2023-05-05T16:39:06.331Z,504.00
2023-05-05T16:40:06.319Z,509.00
2023-05-05T16:41:06.321Z,505.00
2023-05-05T16:42:06.268Z,506.00
2023-05-05T16:43:06.201Z,507.00
2023-05-05T16:44:06.190Z,505.00
2023-05-05T16:45:06.571Z,508.00
2023-05-05T16:46:06.175Z,509.00
2023-05-05T16:47:06.088Z,508.00
2023-05-05T16:48:08.805Z,505.00
2023-05-05T16:49:06.018Z,507.00
2023-05-05T16:50:05.958Z,505.00
2023-05-05T16:51:05.987Z,503.00
2023-05-05T16:52:05.864Z,506.00
2023-05-05T16:53:05.799Z,506.00
2023-05-05T16:54:05.810Z,504.00
2023-05-05T16:55:05.703Z,500.00
2023-05-05T16:56:05.654Z,501.00
2023-05-05T16:57:05.600Z,503.00
2023-05-05T16:58:05.566Z,504.00
2023-05-05T16:59:05.484Z,504.00
2023-05-05T17:00:05.447Z,500.00
2023-05-05T17:01:05.474Z,504.00
2023-05-05T17:02:05.376Z,505.00
2023-05-05T17:03:05.256Z,506.00
2023-05-05T17:04:05.233Z,508.00
2023-05-05T17:05:05.223Z,501.00
2023-05-05T17:06:05.116Z,504.00
2023-05-05T17:07:05.040Z,506.00
2023-05-05T17:08:04.989Z,507.00
2023-05-05T17:09:04.922Z,505.00
2023-05-05T17:10:04.896Z,508.00
2023-05-05T17:11:04.812Z,504.00
2023-05-05T17:12:04.792Z,506.00
2023-05-05T17:13:04.787Z,503.00
2023-05-05T17:14:04.684Z,505.00
2023-05-05T17:15:04.604Z,506.00
2023-05-05T17:16:04.633Z,506.00
2023-05-05T17:17:04.649Z,501.00
2023-05-05T17:18:04.516Z,507.00
2023-05-05T17:19:04.397Z,503.00
2023-05-05T17:20:04.345Z,505.00
2023-05-05T17:21:04.274Z,503.00
2023-05-05T17:22:04.245Z,503.00
2023-05-05T17:23:04.189Z,502.00
2023-05-05T17:24:04.125Z,502.00
2023-05-05T17:25:04.086Z,503.00
2023-05-05T17:26:04.032Z,504.00
2023-05-05T17:27:03.982Z,506.00
2023-05-05T17:28:03.944Z,506.00
2023-05-05T17:29:03.890Z,506.00
2023-05-05T17:30:03.837Z,509.00
2023-05-05T17:31:03.790Z,503.00
2023-05-05T17:32:03.895Z,507.00
2023-05-05T17:33:03.791Z,504.00
2023-05-05T17:34:03.646Z,504.00
2023-05-05T17:35:03.587Z,505.00
2023-05-05T17:36:04.544Z,504.00
2023-05-05T17:37:03.482Z,506.00
2023-05-05T17:38:03.437Z,503.00
2023-05-05T17:39:03.386Z,505.00
2023-05-05T17:40:03.348Z,505.00
2023-05-05T17:41:03.292Z,504.00
2023-05-05T17:42:03.239Z,503.00
2023-05-05T17:43:03.167Z,504.00
2023-05-05T17:44:03.122Z,500.00
2023-05-05T17:45:03.087Z,507.00
2023-05-05T17:46:03.060Z,503.00
2023-05-05T17:47:03.003Z,505.00
2023-05-05T17:48:02.920Z,501.00
2023-05-05T17:49:03.011Z,503.00
2023-05-05T17:50:02.788Z,507.00
2023-05-05T17:51:02.736Z,504.00
2023-05-05T17:52:02.677Z,503.00
2023-05-05T17:53:02.669Z,503.00
2023-05-05T17:54:02.569Z,505.00
2023-05-05T17:55:03.043Z,502.00
2023-05-05T17:56:02.454Z,502.00
2023-05-05T17:57:02.398Z,503.00
2023-05-05T17:58:02.354Z,503.00
2023-05-05T17:59:02.312Z,505.00
2023-05-05T18:00:02.255Z,505.00
2023-05-05T18:01:02.219Z,504.00
2023-05-05T18:02:02.173Z,504.00
2023-05-05T18:03:02.180Z,508.00